createdAt,value
2022-10-25T00:00:26.051Z,20.41
2022-10-25T00:01:48.501Z,20.72
2022-10-25T00:02:50.212Z,20.89
2022-10-25T00:03:52.132Z,21.04
2022-10-25T00:04:53.768Z,21.15
2022-10-25T00:05:55.354Z,21.24
2022-10-25T00:06:57.041Z,21.33
2022-10-25T00:07:58.641Z,21.40
2022-10-25T00:09:00.918Z,21.47
2022-10-25T00:10:02.617Z,21.50
2022-10-25T00:11:05.986Z,21.53
2022-10-25T00:12:08.434Z,21.54
2022-10-25T00:13:10.045Z,21.38
2022-10-25T00:14:16.629Z,20.97
2022-10-25T00:15:18.497Z,20.44
2022-10-25T00:16:23.937Z,19.97
2022-10-25T00:17:25.540Z,19.50
2022-10-25T00:18:27.413Z,19.29
2022-10-25T00:19:29.078Z,19.44
2022-10-25T00:20:30.735Z,19.77
2022-10-25T00:21:33.062Z,20.13
2022-10-25T00:22:34.859Z,20.42
2022-10-25T00:23:37.024Z,20.66
2022-10-25T00:24:38.790Z,20.85
2022-10-25T00:25:41.240Z,20.99
2022-10-25T00:26:42.961Z,21.12
2022-10-25T00:27:44.624Z,21.25
2022-10-25T00:28:46.318Z,21.34
2022-10-25T00:29:47.969Z,21.43
2022-10-25T00:31:00.255Z,21.50
2022-10-25T00:32:01.892Z,21.58
2022-10-25T00:33:03.566Z,21.64
2022-10-25T00:34:05.250Z,21.52
2022-10-25T00:35:07.160Z,21.14
2022-10-25T00:36:14.423Z,20.66
2022-10-25T00:37:16.367Z,20.13
2022-10-25T00:38:17.959Z,19.68
2022-10-25T00:39:19.962Z,19.40
2022-10-25T00:40:21.713Z,19.48
2022-10-25T00:41:27.191Z,19.80
2022-10-25T00:42:28.806Z,20.16
2022-10-25T00:43:38.074Z,20.47
2022-10-25T00:44:39.590Z,20.74
2022-10-25T00:45:41.374Z,20.93
2022-10-25T00:46:44.926Z,21.07
2022-10-25T00:48:09.580Z,21.20
2022-10-25T00:49:17.603Z,21.33
2022-10-25T00:50:39.374Z,21.42
2022-10-25T00:51:43.587Z,21.54
2022-10-25T00:52:48.942Z,21.59
2022-10-25T00:53:51.353Z,21.65
2022-10-25T00:54:54.510Z,21.57
2022-10-25T00:56:05.512Z,21.22
2022-10-25T00:57:27.581Z,20.66
2022-10-25T00:58:34.048Z,20.02
2022-10-25T00:59:35.858Z,19.57
2022-10-25T01:00:37.551Z,19.40
2022-10-25T01:01:39.675Z,19.60
2022-10-25T01:02:41.924Z,19.94
2022-10-25T01:03:47.611Z,20.29
2022-10-25T01:04:50.632Z,20.59
2022-10-25T01:05:54.048Z,20.81
2022-10-25T01:06:55.846Z,20.98
2022-10-25T01:07:57.952Z,21.11
2022-10-25T01:09:02.997Z,21.24
2022-10-25T01:10:05.543Z,21.33
2022-10-25T01:11:07.265Z,21.40
2022-10-25T01:12:09.067Z,21.46
2022-10-25T01:13:12.475Z,21.50
2022-10-25T01:14:16.917Z,21.55
2022-10-25T01:15:21.541Z,21.55
2022-10-25T01:16:39.006Z,21.30
2022-10-25T01:18:02.144Z,20.70
2022-10-25T01:19:15.794Z,20.02
2022-10-25T01:21:01.543Z,19.46
2022-10-25T01:22:06.392Z,19.18
2022-10-25T01:23:20.094Z,19.47
2022-10-25T01:24:43.045Z,19.90
2022-10-25T01:26:02.815Z,20.29
2022-10-25T01:27:31.961Z,20.59
2022-10-25T01:29:02.347Z,20.83
2022-10-25T01:30:09.270Z,21.00
2022-10-25T01:31:43.579Z,21.11
2022-10-25T01:33:21.961Z,21.21
2022-10-25T01:34:31.976Z,21.31
2022-10-25T01:35:54.862Z,21.37
2022-10-25T01:37:22.640Z,21.44
2022-10-25T01:38:27.211Z,21.54
2022-10-25T01:39:57.123Z,21.61
2022-10-25T01:41:30.326Z,21.44
2022-10-25T01:42:56.035Z,20.81
2022-10-25T01:44:29.464Z,20.16
2022-10-25T01:45:49.091Z,19.55
2022-10-25T01:46:58.729Z,19.52
2022-10-25T01:48:07.634Z,19.87
2022-10-25T01:49:18.194Z,20.27
2022-10-25T01:50:34.922Z,20.62
2022-10-25T01:51:37.341Z,20.90
2022-10-25T01:52:39.533Z,21.08
2022-10-25T01:53:58.935Z,21.23
2022-10-25T01:55:01.336Z,21.35
2022-10-25T01:56:06.048Z,21.41
2022-10-25T01:57:45.000Z,21.47
2022-10-25T01:59:03.939Z,21.56
2022-10-25T02:00:11.150Z,21.61
2022-10-25T02:01:33.775Z,21.39
2022-10-25T02:03:06.558Z,20.82
2022-10-25T02:04:36.651Z,20.11
2022-10-25T02:05:50.490Z,19.47
2022-10-25T02:07:11.784Z,19.28
2022-10-25T02:08:29.090Z,19.59
2022-10-25T02:09:43.674Z,20.03
2022-10-25T02:11:09.165Z,20.39
2022-10-25T02:12:19.928Z,20.69
2022-10-25T02:13:59.385Z,20.88
2022-10-25T02:15:15.883Z,21.07
2022-10-25T02:16:26.246Z,21.18
2022-10-25T02:17:28.578Z,21.26
2022-10-25T02:18:36.914Z,21.29
2022-10-25T02:19:45.863Z,21.34
2022-10-25T02:20:52.045Z,21.39
2022-10-25T02:21:57.254Z,21.35
2022-10-25T02:23:04.195Z,21.02
2022-10-25T02:24:14.093Z,20.50
2022-10-25T02:25:16.868Z,19.93
2022-10-25T02:26:21.208Z,19.46
2022-10-25T02:27:26.402Z,19.14
2022-10-25T02:28:30.562Z,19.23
2022-10-25T02:29:35.593Z,19.55
2022-10-25T02:30:42.420Z,19.91
2022-10-25T02:31:45.102Z,20.24
2022-10-25T02:32:46.861Z,20.50
2022-10-25T02:33:48.745Z,20.70
2022-10-25T02:34:50.726Z,20.86
2022-10-25T02:36:13.423Z,21.00
2022-10-25T02:37:15.057Z,21.16
2022-10-25T02:38:16.729Z,21.27
2022-10-25T02:39:20.516Z,21.35
2022-10-25T02:40:22.899Z,21.36
2022-10-25T02:41:25.598Z,21.06
2022-10-25T02:42:27.410Z,20.60
2022-10-25T02:44:35.569Z,19.63
2022-10-25T02:45:37.162Z,19.26
2022-10-25T02:46:39.074Z,19.11
2022-10-25T02:47:40.668Z,19.32
2022-10-25T02:48:43.176Z,19.66
2022-10-25T02:49:44.782Z,20.03
2022-10-25T02:50:46.534Z,20.33
2022-10-25T02:51:48.179Z,20.56
2022-10-25T02:52:49.990Z,20.76
2022-10-25T02:53:51.758Z,20.92
2022-10-25T02:54:53.418Z,21.05
2022-10-25T02:56:11.489Z,21.17
2022-10-25T02:57:13.092Z,21.20
2022-10-25T02:58:14.774Z,20.90
2022-10-25T02:59:16.357Z,20.45
2022-10-25T03:00:18.211Z,19.99
2022-10-25T03:01:21.281Z,19.56
2022-10-25T03:02:23.061Z,19.17
2022-10-25T03:03:25.042Z,18.92
2022-10-25T03:04:26.662Z,19.01
2022-10-25T03:05:28.262Z,19.37
2022-10-25T03:06:29.948Z,19.77
2022-10-25T03:07:31.554Z,20.13
2022-10-25T03:08:34.066Z,20.45
2022-10-25T03:09:35.672Z,20.69
2022-10-25T03:10:37.909Z,20.86
2022-10-25T03:11:39.494Z,20.99
2022-10-25T03:12:41.366Z,21.00
2022-10-25T03:13:43.283Z,20.70
2022-10-25T03:14:44.881Z,20.23
2022-10-25T03:15:46.793Z,19.73
2022-10-25T03:17:55.119Z,18.84
2022-10-25T03:19:00.147Z,18.68
2022-10-25T03:20:01.927Z,18.90
2022-10-25T03:21:04.492Z,19.25
2022-10-25T03:22:06.112Z,19.59
2022-10-25T03:23:08.066Z,19.90
2022-10-25T03:24:09.805Z,20.16
2022-10-25T03:25:11.439Z,20.35
2022-10-25T03:26:13.065Z,20.53
2022-10-25T03:27:14.696Z,20.67
2022-10-25T03:28:16.308Z,20.79
2022-10-25T03:29:18.035Z,20.89
2022-10-25T03:30:19.810Z,20.97
2022-10-25T03:31:21.436Z,21.03
2022-10-25T03:32:23.030Z,21.06
2022-10-25T03:33:25.739Z,20.83
2022-10-25T03:34:27.740Z,20.38
2022-10-25T03:35:29.469Z,19.87
2022-10-25T03:36:31.226Z,19.39
2022-10-25T03:37:32.881Z,18.93
2022-10-25T03:38:34.749Z,18.60
2022-10-25T03:39:36.487Z,18.64
2022-10-25T03:40:38.109Z,18.95
2022-10-25T03:41:39.732Z,19.31
2022-10-25T03:42:42.032Z,19.65
2022-10-25T03:43:43.719Z,19.91
2022-10-25T03:44:45.648Z,20.12
2022-10-25T03:45:47.452Z,20.29
2022-10-25T03:46:49.097Z,20.41
2022-10-25T03:47:50.793Z,20.51
2022-10-25T03:48:52.437Z,20.60
2022-10-25T03:49:54.125Z,20.69
2022-10-25T03:50:55.821Z,20.78
2022-10-25T03:51:59.998Z,20.87
2022-10-25T03:53:06.155Z,20.95
2022-10-25T03:54:07.909Z,20.99
2022-10-25T03:55:09.970Z,20.96
2022-10-25T03:56:11.667Z,20.68
2022-10-25T03:57:13.524Z,20.20
2022-10-25T03:58:15.499Z,19.69
2022-10-25T03:59:17.106Z,19.22
2022-10-25T04:00:19.003Z,18.83
2022-10-25T04:01:20.803Z,18.74
2022-10-25T04:02:22.510Z,18.98
2022-10-25T04:03:24.227Z,19.33
2022-10-25T04:04:26.076Z,19.67
2022-10-25T04:05:28.772Z,19.95
2022-10-25T04:06:30.439Z,20.17
2022-10-25T04:07:32.219Z,20.31
2022-10-25T04:08:33.865Z,20.42
2022-10-25T04:09:35.657Z,20.53
2022-10-25T04:10:37.392Z,20.61
2022-10-25T04:11:39.307Z,20.69
2022-10-25T04:12:40.983Z,20.74
2022-10-25T04:13:42.978Z,20.77
2022-10-25T04:14:44.663Z,20.79
2022-10-25T04:15:46.409Z,20.82
2022-10-25T04:16:48.036Z,20.73
2022-10-25T04:17:51.177Z,20.39
2022-10-25T04:18:53.449Z,19.87
2022-10-25T04:19:55.058Z,19.35
2022-10-25T04:20:58.530Z,18.86
2022-10-25T04:22:02.237Z,18.37
2022-10-25T04:23:04.094Z,18.11
2022-10-25T04:24:06.422Z,18.28
2022-10-25T04:25:08.726Z,18.66
2022-10-25T04:26:10.452Z,19.02
2022-10-25T04:27:12.368Z,19.31
2022-10-25T04:28:14.081Z,19.54
2022-10-25T04:29:18.516Z,19.71
2022-10-25T04:30:20.384Z,19.84
2022-10-25T04:31:23.852Z,19.96
2022-10-25T04:32:25.475Z,20.07
2022-10-25T04:33:27.149Z,20.16
2022-10-25T04:34:28.829Z,20.23
2022-10-25T04:35:30.475Z,20.28
2022-10-25T04:36:32.257Z,20.31
2022-10-25T04:37:33.892Z,20.32
2022-10-25T04:38:35.975Z,20.35
2022-10-25T04:39:37.833Z,20.38
2022-10-25T04:40:39.481Z,20.43
2022-10-25T04:41:41.471Z,20.47
2022-10-25T04:42:43.173Z,20.52
2022-10-25T04:43:45.048Z,20.56
2022-10-25T04:44:46.694Z,20.59
2022-10-25T04:45:48.505Z,20.62
2022-10-25T04:46:51.718Z,20.67
2022-10-25T04:47:53.389Z,20.71
2022-10-25T04:48:55.087Z,20.70
2022-10-25T04:49:56.687Z,20.39
2022-10-25T04:51:01.570Z,19.90
2022-10-25T04:52:03.317Z,19.33
2022-10-25T04:53:05.845Z,18.84
2022-10-25T04:54:07.528Z,18.46
2022-10-25T04:55:09.583Z,18.46
2022-10-25T04:56:14.506Z,18.72
2022-10-25T04:57:16.205Z,19.06
2022-10-25T04:58:17.798Z,19.34
2022-10-25T04:59:19.421Z,19.58
2022-10-25T05:00:21.090Z,19.78
2022-10-25T05:01:22.799Z,19.93
2022-10-25T05:02:25.042Z,20.04
2022-10-25T05:03:27.090Z,20.10
2022-10-25T05:04:28.743Z,20.18
2022-10-25T05:05:30.376Z,20.26
2022-10-25T05:06:32.038Z,20.30
2022-10-25T05:07:33.880Z,20.32
2022-10-25T05:08:36.469Z,20.35
2022-10-25T05:09:38.266Z,20.39
2022-10-25T05:10:39.971Z,20.43
2022-10-25T05:11:41.640Z,20.46
2022-10-25T05:12:44.475Z,20.49
2022-10-25T05:13:47.392Z,20.49
2022-10-25T05:14:49.010Z,20.25
2022-10-25T05:15:57.728Z,19.78
2022-10-25T05:16:59.342Z,19.21
2022-10-25T05:18:02.001Z,18.71
2022-10-25T05:19:03.733Z,18.22
2022-10-25T05:20:06.486Z,18.02
2022-10-25T05:21:10.267Z,18.18
2022-10-25T05:22:11.949Z,18.52
2022-10-25T05:23:13.629Z,18.83
2022-10-25T05:24:15.301Z,19.10
2022-10-25T05:25:17.180Z,19.30
2022-10-25T05:26:21.280Z,19.46
2022-10-25T05:27:22.937Z,19.59
2022-10-25T05:28:24.712Z,19.66
2022-10-25T05:29:26.664Z,19.75
2022-10-25T05:30:28.318Z,19.84
2022-10-25T05:31:31.434Z,19.90
2022-10-25T05:32:33.161Z,19.98
2022-10-25T05:33:35.545Z,20.05
2022-10-25T05:34:37.261Z,20.09
2022-10-25T05:35:38.893Z,20.14
2022-10-25T05:36:40.583Z,20.19
2022-10-25T05:37:42.203Z,20.26
2022-10-25T05:38:43.970Z,20.32
2022-10-25T05:39:45.869Z,20.37
2022-10-25T05:41:06.868Z,20.41
2022-10-25T05:42:08.478Z,20.48
2022-10-25T05:43:10.090Z,20.43
2022-10-25T05:44:11.791Z,20.07
2022-10-25T05:45:13.430Z,19.56
2022-10-25T05:46:21.166Z,19.05
2022-10-25T05:47:22.909Z,18.54
2022-10-25T05:48:24.993Z,18.20
2022-10-25T05:49:26.638Z,18.26
2022-10-25T05:50:28.292Z,18.56
2022-10-25T05:51:36.685Z,18.89
2022-10-25T05:52:42.900Z,19.20
2022-10-25T05:53:50.633Z,19.44
2022-10-25T05:54:52.301Z,19.65
2022-10-25T05:55:53.927Z,19.81
2022-10-25T05:56:55.583Z,19.94
2022-10-25T05:57:57.353Z,20.04
2022-10-25T05:59:03.650Z,20.12
2022-10-25T06:00:05.896Z,20.21
2022-10-25T06:01:10.766Z,20.27
2022-10-25T06:02:12.668Z,20.34
2022-10-25T06:03:14.876Z,20.42
2022-10-25T06:04:17.116Z,20.44
2022-10-25T06:05:18.850Z,20.49
2022-10-25T06:06:21.398Z,20.54
2022-10-25T06:07:23.050Z,20.59
2022-10-25T06:08:24.636Z,20.52
2022-10-25T06:09:26.481Z,20.18
2022-10-25T06:10:28.097Z,19.70
2022-10-25T06:11:31.108Z,19.22
2022-10-25T06:12:32.694Z,18.77
2022-10-25T06:13:35.234Z,18.34
2022-10-25T06:14:36.882Z,18.20
2022-10-25T06:15:38.931Z,18.44
2022-10-25T06:16:40.630Z,18.81
2022-10-25T06:17:42.295Z,19.16
2022-10-25T06:18:45.453Z,19.45
2022-10-25T06:19:47.513Z,19.67
2022-10-25T06:20:49.603Z,19.85
2022-10-25T06:21:54.417Z,20.01
2022-10-25T06:22:56.047Z,20.16
2022-10-25T06:24:00.123Z,20.25
2022-10-25T06:25:01.857Z,20.31
2022-10-25T06:26:06.952Z,20.40
2022-10-25T06:27:08.672Z,20.46
2022-10-25T06:28:10.564Z,20.49
2022-10-25T06:29:12.198Z,20.52
2022-10-25T06:30:14.526Z,20.58
2022-10-25T06:31:18.196Z,20.63
2022-10-25T06:32:19.830Z,20.68
2022-10-25T06:33:24.476Z,20.65
2022-10-25T06:34:29.446Z,20.32
2022-10-25T06:35:31.147Z,19.83
2022-10-25T06:36:32.833Z,19.33
2022-10-25T06:37:34.502Z,18.84
2022-10-25T06:38:36.143Z,18.41
2022-10-25T06:39:37.796Z,18.29
2022-10-25T06:40:39.736Z,18.52
2022-10-25T06:41:41.555Z,18.87
2022-10-25T06:42:44.298Z,19.20
2022-10-25T06:43:46.395Z,19.49
2022-10-25T06:44:48.497Z,19.71
2022-10-25T06:45:50.204Z,19.89
2022-10-25T06:47:15.843Z,20.04
2022-10-25T06:48:13.530Z,20.16
2022-10-25T06:49:15.309Z,20.24
2022-10-25T06:50:17.267Z,20.30
2022-10-25T06:51:19.360Z,20.35
2022-10-25T06:52:21.071Z,20.38
2022-10-25T06:53:22.705Z,20.41
2022-10-25T06:54:25.576Z,20.46
2022-10-25T06:55:27.271Z,20.50
2022-10-25T06:56:29.494Z,20.51
2022-10-25T06:57:31.109Z,20.34
2022-10-25T06:58:34.640Z,19.91
2022-10-25T06:59:36.218Z,19.39
2022-10-25T07:00:37.875Z,18.92
2022-10-25T07:01:39.797Z,18.46
2022-10-25T07:02:41.503Z,18.05
2022-10-25T07:03:44.130Z,17.96
2022-10-25T07:04:45.777Z,18.20
2022-10-25T07:05:47.414Z,18.55
2022-10-25T07:06:51.542Z,18.88
2022-10-25T07:07:56.207Z,19.17
2022-10-25T07:09:01.518Z,19.40
2022-10-25T07:10:03.322Z,19.60
2022-10-25T07:11:06.173Z,19.77
2022-10-25T07:12:12.404Z,19.91
2022-10-25T07:13:14.441Z,20.01
2022-10-25T07:14:16.463Z,20.09
2022-10-25T07:16:26.544Z,20.24
2022-10-25T07:17:28.247Z,20.32
2022-10-25T07:18:30.719Z,20.38
2022-10-25T07:19:32.371Z,20.41
2022-10-25T07:20:34.024Z,20.47
2022-10-25T07:21:35.696Z,20.51
2022-10-25T07:22:37.433Z,20.55
2022-10-25T07:23:42.990Z,20.62
2022-10-25T07:24:44.627Z,20.70
2022-10-25T07:25:46.270Z,20.74
2022-10-25T07:26:47.904Z,20.75
2022-10-25T07:27:49.939Z,20.82
2022-10-25T07:28:54.008Z,20.84
2022-10-25T07:29:55.629Z,20.85
2022-10-25T07:30:57.222Z,20.69
2022-10-25T07:31:58.922Z,20.28
2022-10-25T07:33:00.737Z,19.80
2022-10-25T07:34:05.065Z,19.30
2022-10-25T07:35:07.054Z,18.85
2022-10-25T07:36:11.417Z,18.57
2022-10-25T07:37:13.404Z,18.68
2022-10-25T07:38:15.142Z,19.03
2022-10-25T07:39:16.752Z,19.39
2022-10-25T07:40:18.348Z,19.73
2022-10-25T07:41:20.569Z,20.00
2022-10-25T07:42:22.289Z,20.20
2022-10-25T07:43:25.682Z,20.37
2022-10-25T07:44:27.306Z,20.47
2022-10-25T07:45:31.200Z,20.53
2022-10-25T07:46:33.005Z,20.60
2022-10-25T07:47:34.655Z,20.68
2022-10-25T07:48:36.533Z,20.76
2022-10-25T07:49:39.916Z,20.81
2022-10-25T07:50:41.589Z,20.90
2022-10-25T07:51:43.351Z,20.97
2022-10-25T07:52:45.583Z,21.02
2022-10-25T07:53:47.690Z,21.08
2022-10-25T07:54:49.543Z,21.10
2022-10-25T07:55:52.619Z,20.96
2022-10-25T07:56:54.198Z,20.59
2022-10-25T07:58:04.125Z,20.12
2022-10-25T07:59:05.829Z,19.55
2022-10-25T08:00:10.090Z,19.10
2022-10-25T08:01:14.512Z,18.77
2022-10-25T08:02:16.441Z,18.80
2022-10-25T08:03:18.927Z,19.12
2022-10-25T08:04:21.586Z,19.49
2022-10-25T08:05:24.015Z,19.85
2022-10-25T08:06:26.331Z,20.15
2022-10-25T08:07:28.299Z,20.38
2022-10-25T08:08:30.457Z,20.56
2022-10-25T08:09:38.361Z,20.69
2022-10-25T08:10:44.015Z,20.76
2022-10-25T08:11:45.617Z,20.77
2022-10-25T08:12:49.158Z,20.85
2022-10-25T08:13:50.844Z,20.93
2022-10-25T08:14:52.637Z,20.97
2022-10-25T08:15:56.264Z,20.93
2022-10-25T08:16:57.872Z,20.65
2022-10-25T08:18:00.778Z,20.22
2022-10-25T08:19:02.432Z,19.74
2022-10-25T08:20:04.309Z,19.30
2022-10-25T08:21:06.012Z,18.91
2022-10-25T08:22:08.671Z,18.61
2022-10-25T08:23:10.304Z,18.69
2022-10-25T08:24:12.038Z,19.00
2022-10-25T08:25:13.767Z,19.38
2022-10-25T08:26:15.729Z,19.70
2022-10-25T08:27:17.311Z,20.01
2022-10-25T08:28:19.290Z,20.25
2022-10-25T08:29:20.974Z,20.45
2022-10-25T08:30:22.584Z,20.60
2022-10-25T08:31:24.761Z,20.74
2022-10-25T08:32:26.443Z,20.87
2022-10-25T08:33:28.653Z,20.95
2022-10-25T08:34:33.063Z,21.08
2022-10-25T08:35:35.017Z,21.24
2022-10-25T08:36:36.815Z,21.29
2022-10-25T08:37:38.515Z,21.13
2022-10-25T08:38:40.127Z,20.76
2022-10-25T08:39:42.203Z,20.30
2022-10-25T08:41:07.265Z,19.84
2022-10-25T08:42:22.714Z,19.29
2022-10-25T08:45:19.651Z,19.21
2022-10-25T08:46:33.078Z,19.75
2022-10-25T08:47:43.789Z,20.18
2022-10-25T08:48:53.319Z,20.48
2022-10-25T08:50:13.015Z,20.73
2022-10-25T08:51:29.692Z,20.92
2022-10-25T08:52:43.859Z,21.00
2022-10-25T08:53:51.943Z,21.10
2022-10-25T08:55:00.398Z,21.21
2022-10-25T08:56:16.516Z,21.10
2022-10-25T08:57:24.989Z,20.65
2022-10-25T08:58:37.101Z,20.17
2022-10-25T08:59:44.137Z,19.70
2022-10-25T09:00:48.861Z,19.32
2022-10-25T09:01:57.718Z,19.01
2022-10-25T09:03:01.382Z,18.88
2022-10-25T09:04:03.066Z,19.15
2022-10-25T09:05:14.107Z,19.57
2022-10-25T09:06:39.938Z,20.06
2022-10-25T09:08:00.873Z,20.53
2022-10-25T09:09:18.259Z,20.86
2022-10-25T09:10:50.425Z,21.16
2022-10-25T09:12:01.054Z,21.42
2022-10-25T09:13:36.634Z,21.56
2022-10-25T09:15:13.391Z,21.36
2022-10-25T09:16:24.051Z,20.66
2022-10-25T09:17:50.098Z,20.15
2022-10-25T09:18:54.934Z,19.60
2022-10-25T09:20:19.117Z,19.27
2022-10-25T09:21:22.775Z,18.95
2022-10-25T09:22:29.469Z,19.08
2022-10-25T09:23:32.649Z,19.50
2022-10-25T09:24:50.154Z,19.92
2022-10-25T09:26:00.925Z,20.44
2022-10-25T09:27:09.787Z,20.80
2022-10-25T09:28:21.398Z,21.10
2022-10-25T09:29:35.994Z,21.35
2022-10-25T09:30:43.188Z,21.55
2022-10-25T09:31:51.868Z,21.61
2022-10-25T09:33:02.055Z,21.35
2022-10-25T09:34:09.109Z,20.90
2022-10-25T09:35:22.423Z,20.43
2022-10-25T09:36:29.203Z,19.97
2022-10-25T09:37:39.926Z,19.61
2022-10-25T09:38:47.179Z,19.29
2022-10-25T09:39:59.666Z,19.05
2022-10-25T09:41:10.667Z,19.18
2022-10-25T09:42:24.948Z,19.66
2022-10-25T09:43:41.070Z,20.19
2022-10-25T09:44:50.698Z,20.62
2022-10-25T09:45:59.678Z,20.90
2022-10-25T09:47:16.521Z,21.12
2022-10-25T09:48:39.665Z,21.21
2022-10-25T09:49:52.819Z,20.81
2022-10-25T09:51:23.176Z,20.32
2022-10-25T09:54:13.716Z,19.26
2022-10-25T09:55:39.527Z,18.96
2022-10-25T09:56:41.225Z,19.13
2022-10-25T09:57:43.142Z,19.53
2022-10-25T09:58:47.200Z,19.98
2022-10-25T09:59:52.191Z,20.40
2022-10-25T10:00:57.854Z,20.72
2022-10-25T10:01:59.640Z,20.98
2022-10-25T10:03:01.487Z,21.19
2022-10-25T10:04:20.216Z,21.27
2022-10-25T10:05:22.798Z,20.97
2022-10-25T10:06:32.566Z,20.59
2022-10-25T10:07:37.195Z,20.15
2022-10-25T10:08:45.927Z,19.76
2022-10-25T10:09:51.680Z,19.39
2022-10-25T10:10:56.402Z,19.10
2022-10-25T10:12:06.325Z,18.85
2022-10-25T10:13:36.888Z,18.60
2022-10-25T10:14:47.783Z,18.69
2022-10-25T10:16:01.582Z,19.16
2022-10-25T10:17:07.228Z,19.68
2022-10-25T10:18:31.680Z,20.12
2022-10-25T10:19:33.429Z,20.58
2022-10-25T10:20:35.233Z,20.81
2022-10-25T10:21:41.377Z,21.00
2022-10-25T10:22:51.689Z,21.15
2022-10-25T10:24:05.466Z,20.98
2022-10-25T10:25:17.850Z,20.55
2022-10-25T10:26:24.838Z,20.09
2022-10-25T10:27:28.686Z,19.68
2022-10-25T10:28:31.762Z,19.36
2022-10-25T10:29:37.595Z,19.09
2022-10-25T10:30:39.870Z,18.85
2022-10-25T10:31:45.382Z,18.77
2022-10-25T10:32:47.356Z,19.09
2022-10-25T10:33:51.661Z,19.55
2022-10-25T10:35:01.430Z,20.06
2022-10-25T10:36:25.985Z,20.53
2022-10-25T10:37:29.934Z,21.00
2022-10-25T10:38:31.519Z,21.26
2022-10-25T10:39:34.494Z,21.46
2022-10-25T10:40:36.341Z,21.46
2022-10-25T10:41:58.365Z,21.16
2022-10-25T10:43:27.231Z,20.59
2022-10-25T10:44:34.692Z,19.98
2022-10-25T10:45:36.676Z,19.60
2022-10-25T10:46:45.531Z,19.33
2022-10-25T10:47:50.138Z,19.08
2022-10-25T10:48:58.904Z,18.95
2022-10-25T10:50:09.667Z,19.19
2022-10-25T10:52:46.213Z,20.45
2022-10-25T10:53:48.551Z,20.90
2022-10-25T10:54:50.761Z,21.25
2022-10-25T10:55:54.341Z,21.53
2022-10-25T10:57:04.835Z,21.69
2022-10-25T10:58:06.392Z,21.49
2022-10-25T10:59:27.890Z,21.11
2022-10-25T11:00:32.559Z,20.62
2022-10-25T11:01:34.685Z,20.28
2022-10-25T11:02:41.017Z,19.99
2022-10-25T11:03:53.444Z,19.72
2022-10-25T11:05:01.957Z,19.45
2022-10-25T11:06:08.356Z,19.27
2022-10-25T11:07:21.428Z,19.06
2022-10-25T11:08:23.036Z,19.02
2022-10-25T11:09:25.708Z,19.33
2022-10-25T11:10:32.866Z,19.77
2022-10-25T11:11:36.772Z,20.26
2022-10-25T11:12:41.199Z,20.64
2022-10-25T11:14:01.250Z,20.96
2022-10-25T11:15:07.894Z,21.27
2022-10-25T11:16:36.885Z,21.25
2022-10-25T11:17:49.925Z,20.77
2022-10-25T11:19:04.844Z,20.35
2022-10-25T11:20:53.428Z,19.97
2022-10-25T11:22:14.731Z,19.57
2022-10-25T11:23:16.336Z,19.41
2022-10-25T11:24:32.279Z,19.31
2022-10-25T11:25:39.218Z,19.42
2022-10-25T11:27:16.175Z,19.92
2022-10-25T11:28:42.914Z,20.88
2022-10-25T11:29:52.831Z,21.58
2022-10-25T11:31:12.930Z,22.00
2022-10-25T11:33:01.916Z,22.01
2022-10-25T11:34:19.583Z,21.50
2022-10-25T11:35:33.443Z,21.07
2022-10-25T11:37:03.812Z,20.68
2022-10-25T11:38:32.112Z,20.22
2022-10-25T11:40:06.561Z,19.81
2022-10-25T11:41:33.177Z,19.45
2022-10-25T11:43:08.067Z,19.17
2022-10-25T11:44:22.975Z,18.89
2022-10-25T11:45:39.576Z,18.71
2022-10-25T11:46:57.362Z,18.63
2022-10-25T11:48:35.309Z,19.03
2022-10-25T11:49:58.548Z,19.90
2022-10-25T11:51:30.876Z,20.62
2022-10-25T11:53:04.844Z,21.28
2022-10-25T11:54:43.538Z,21.47
2022-10-25T11:56:08.307Z,21.17
2022-10-25T11:57:26.776Z,20.84
2022-10-25T11:58:47.060Z,20.56
2022-10-25T12:00:11.768Z,20.35
2022-10-25T12:01:33.988Z,20.19
2022-10-25T12:03:12.817Z,20.07
2022-10-25T12:04:39.580Z,20.00
2022-10-25T12:05:48.038Z,19.98
2022-10-25T12:07:04.131Z,19.99
2022-10-25T12:08:26.890Z,20.04
2022-10-25T12:09:45.194Z,20.07
2022-10-25T12:10:54.604Z,20.05
2022-10-25T12:12:09.784Z,20.03
2022-10-25T12:13:21.058Z,20.02
2022-10-25T12:14:32.254Z,20.01
2022-10-25T12:15:46.872Z,19.97
2022-10-25T12:16:49.956Z,19.90
2022-10-25T12:17:53.499Z,19.82
2022-10-25T12:19:23.099Z,19.76
2022-10-25T12:20:28.942Z,19.70
2022-10-25T12:21:43.089Z,19.67
2022-10-25T12:22:49.361Z,19.62
2022-10-25T12:23:54.862Z,19.56
2022-10-25T12:25:02.975Z,19.51
2022-10-25T12:26:22.579Z,19.46
2022-10-25T12:27:28.560Z,19.39
2022-10-25T12:28:44.840Z,19.38
2022-10-25T12:29:53.470Z,19.37
2022-10-25T12:31:11.570Z,19.36
2022-10-25T12:32:34.004Z,19.31
2022-10-25T12:33:42.662Z,19.23
2022-10-25T12:34:52.206Z,19.11
2022-10-25T12:36:02.357Z,18.98
2022-10-25T12:37:16.344Z,18.90
2022-10-25T12:38:30.738Z,18.87
2022-10-25T12:39:39.884Z,18.88
2022-10-25T12:40:48.488Z,18.93
2022-10-25T12:42:00.626Z,19.02
2022-10-25T12:43:17.068Z,19.12
2022-10-25T12:44:54.290Z,19.16
2022-10-25T12:46:28.771Z,19.12
2022-10-25T12:47:52.029Z,19.05
2022-10-25T12:49:23.193Z,18.94
2022-10-25T12:50:40.705Z,18.82
2022-10-25T12:52:01.165Z,18.71
2022-10-25T12:53:39.865Z,18.57
2022-10-25T12:55:19.085Z,18.39
2022-10-25T12:56:44.894Z,18.24
2022-10-25T12:57:56.018Z,18.13
2022-10-25T12:59:14.346Z,18.07
2022-10-25T13:01:52.550Z,19.05
2022-10-25T13:03:31.536Z,19.81
2022-10-25T13:04:52.437Z,20.53
2022-10-25T13:06:31.034Z,20.79
2022-10-25T13:07:36.410Z,20.44
2022-10-25T13:08:40.785Z,20.07
2022-10-25T13:09:42.986Z,19.71
2022-10-25T13:10:56.953Z,19.42
2022-10-25T13:12:05.461Z,19.12
2022-10-25T13:13:22.467Z,18.88
2022-10-25T13:14:30.958Z,18.65
2022-10-25T13:15:52.466Z,18.50
2022-10-25T13:17:16.921Z,18.35
2022-10-25T13:18:31.976Z,18.23
2022-10-25T13:20:03.034Z,18.30
2022-10-25T13:20:55.659Z,18.93
2022-10-25T13:21:57.164Z,19.53
2022-10-25T13:22:58.747Z,20.11
2022-10-25T13:24:02.879Z,20.60
2022-10-25T13:25:12.290Z,20.98
2022-10-25T13:26:20.300Z,21.11
2022-10-25T13:27:25.201Z,20.87
2022-10-25T13:28:35.917Z,20.51
2022-10-25T13:29:49.215Z,20.11
2022-10-25T13:31:29.202Z,19.74
2022-10-25T13:32:39.402Z,19.32
2022-10-25T13:33:41.313Z,19.08
2022-10-25T13:34:43.018Z,18.90
2022-10-25T13:35:44.542Z,18.73
2022-10-25T13:37:01.299Z,18.59
2022-10-25T13:38:08.828Z,18.42
2022-10-25T13:39:18.114Z,18.28
2022-10-25T13:40:26.749Z,18.26
2022-10-25T13:41:44.760Z,18.67
2022-10-25T13:42:49.504Z,19.39
2022-10-25T13:44:04.257Z,19.99
2022-10-25T13:45:09.226Z,20.56
2022-10-25T13:46:12.553Z,20.95
2022-10-25T13:47:43.799Z,21.09
2022-10-25T13:48:45.488Z,20.74
2022-10-25T13:49:48.598Z,20.44
2022-10-25T13:50:56.590Z,20.17
2022-10-25T13:52:05.003Z,19.93
2022-10-25T13:53:30.113Z,19.71
2022-10-25T13:54:50.587Z,19.48
2022-10-25T13:56:03.861Z,19.28
2022-10-25T13:57:44.113Z,19.12
2022-10-25T13:58:53.900Z,18.91
2022-10-25T14:00:01.727Z,18.76
2022-10-25T14:01:15.615Z,18.64
2022-10-25T14:02:20.925Z,18.47
2022-10-25T14:03:54.072Z,18.29
2022-10-25T14:04:55.833Z,18.26
2022-10-25T14:05:57.364Z,18.67
2022-10-25T14:07:37.747Z,19.21
2022-10-25T14:08:52.427Z,20.00
2022-10-25T14:09:54.251Z,20.40
2022-10-25T14:11:10.270Z,20.69
2022-10-25T14:12:19.405Z,20.85
2022-10-25T14:13:30.519Z,20.68
2022-10-25T14:14:44.033Z,20.22
2022-10-25T14:15:53.169Z,19.73
2022-10-25T14:17:12.467Z,19.30
2022-10-25T14:18:20.369Z,18.93
2022-10-25T14:19:37.472Z,18.71
2022-10-25T14:20:39.538Z,18.57
2022-10-25T14:21:46.889Z,18.82
2022-10-25T14:23:03.760Z,19.43
2022-10-25T14:24:14.603Z,20.17
2022-10-25T14:25:35.114Z,20.75
2022-10-25T14:26:37.476Z,21.25
2022-10-25T14:27:39.102Z,21.46
2022-10-25T14:28:40.792Z,21.34
2022-10-25T14:29:43.949Z,21.04
2022-10-25T14:31:04.803Z,20.69
2022-10-25T14:32:13.446Z,20.26
2022-10-25T14:33:28.729Z,19.93
2022-10-25T14:34:31.647Z,19.63
2022-10-25T14:35:46.819Z,19.41
2022-10-25T14:36:52.146Z,19.16
2022-10-25T14:37:54.300Z,18.96
2022-10-25T14:39:00.485Z,18.79
2022-10-25T14:40:02.280Z,18.63
2022-10-25T14:41:12.281Z,18.50
2022-10-25T14:42:18.019Z,18.38
2022-10-25T14:43:28.886Z,18.64